Time;durP1;ratioP1;P1;durP2;ratioP2;P2;SDS_P1;SDS_P2;PMS_P1;PMS_P2;Temp;Humidity;BMP_temperature;BMP_pressure;BME280_temperature;BME280_humidity;BME280_pressure;Samples;Min_cycle;Max_cycle;Signal;HPM_P1;HPM_P2
2022/11/18 00:01:14;;;;;;;15.30;6.30;;;;;;;6.76;96.18;98630.44;4989356;28;20209;-68
2022/11/18 00:03:41;;;;;;;11.97;5.93;;;;;;;6.85;95.93;98638.34;4986862;28;20208;-67
2022/11/18 00:06:12;;;;;;;9.93;5.57;;;;;;;6.82;95.86;98636.59;4990398;28;20216;-68
2022/11/18 00:08:39;;;;;;;7.73;4.73;;;;;;;6.78;96.02;98621.66;4989445;28;20228;-67
2022/11/18 00:11:08;;;;;;;10.13;4.80;;;;;;;6.84;95.57;98634.84;4986716;28;20661;-67
2022/11/18 00:16:21;;;;;;;9.30;4.47;;;;;;;6.76;96.19;98639.19;4986704;28;20253;-67
2022/11/18 00:18:47;;;;;;;6.50;4.43;;;;;;;6.77;96.17;98640.94;4989266;28;20202;-67
2022/11/18 00:21:14;;;;;;;9.97;4.60;;;;;;;6.76;96.28;98633.94;4985191;28;20263;-67
2022/11/18 00:23:40;;;;;;;10.47;4.80;;;;;;;6.83;96.28;98646.25;4988994;28;20462;-67
2022/11/18 00:26:13;;;;;;;8.77;4.63;;;;;;;6.86;96.34;98640.09;4989631;28;20220;-68
2022/11/18 00:28:40;;;;;;;8.77;4.90;;;;;;;6.88;96.38;98639.22;4989767;28;20259;-67
2022/11/18 00:31:09;;;;;;;7.20;4.57;;;;;;;6.95;96.43;98634.84;4985218;28;20559;-68
2022/11/18 00:33:36;;;;;;;8.33;4.63;;;;;;;7.00;96.49;98643.59;4988815;28;20205;-68
2022/11/18 00:36:04;;;;;;;7.80;4.50;;;;;;;6.99;96.43;98627.81;4988186;28;20231;-67
2022/11/18 00:38:30;;;;;;;8.07;4.77;;;;;;;7.03;96.60;98640.09;4985951;28;20470;-68
2022/11/18 00:41:02;;;;;;;6.50;4.30;;;;;;;7.00;96.44;98630.44;4989014;28;20219;-68
2022/11/18 00:43:29;;;;;;;7.67;4.70;;;;;;;7.14;96.31;98631.28;4987493;28;20197;-67
2022/11/18 00:45:55;;;;;;;10.40;4.77;;;;;;;7.22;95.97;98631.31;4987168;28;20232;-67
2022/11/18 00:48:22;;;;;;;6.87;4.30;;;;;;;7.34;95.42;98631.28;4988875;28;20205;-69
2022/11/18 00:50:54;;;;;;;7.20;4.57;;;;;;;7.42;94.82;98628.63;4987529;28;20251;-69
2022/11/18 00:53:22;;;;;;;8.37;3.90;;;;;;;7.41;94.68;98624.22;4985261;28;20252;-67
2022/11/18 00:55:49;;;;;;;7.03;4.07;;;;;;;7.46;94.51;98630.34;4993965;28;20234;-67
2022/11/18 00:58:16;;;;;;;10.27;3.90;;;;;;;7.34;94.72;98630.41;5007082;28;20204;-66
2022/11/18 01:00:45;;;;;;;6.47;4.00;;;;;;;7.27;94.91;98637.44;4999149;28;20252;-67
2022/11/18 01:03:11;;;;;;;7.20;3.90;;;;;;;7.30;94.86;98647.97;5007847;28;20227;-67
2022/11/18 01:05:38;;;;;;;7.20;3.77;;;;;;;7.33;95.20;98647.06;5008436;28;20216;-68
2022/11/18 01:08:06;;;;;;;6.63;3.33;;;;;;;7.36;95.00;98647.06;5008517;28;20239;-67
2022/11/18 01:10:33;;;;;;;6.27;3.57;;;;;;;7.42;94.68;98644.41;5007238;28;20264;-68
2022/11/18 01:13:18;;;;;;;6.23;3.33;;;;;;;7.53;94.51;98651.41;5007407;28;20196;-68
2022/11/18 01:15:50;;;;;;;6.53;3.47;;;;;;;7.51;94.59;98647.91;5007021;28;20223;-68
2022/11/18 01:18:19;;;;;;;5.10;3.50;;;;;;;7.41;94.75;98659.34;5007360;28;20204;-67
2022/11/18 01:20:46;;;;;;;7.23;3.40;;;;;;;7.27;95.10;98642.69;5004672;28;20299;-67
2022/11/18 01:23:39;;;;;;;5.93;3.23;;;;;;;7.40;94.89;98657.59;5008052;28;20192;-68
2022/11/18 01:26:08;;;;;;;6.80;3.57;;;;;;;7.46;94.47;98672.50;4999390;28;20251;-68
2022/11/18 01:28:35;;;;;;;11.57;3.60;;;;;;;7.46;94.50;98670.75;5008395;28;20246;-67
2022/11/18 01:31:12;;;;;;;6.27;3.13;;;;;;;7.48;94.68;98676.00;5002147;28;20247;-68
2022/11/18 01:33:38;;;;;;;6.50;3.70;;;;;;;7.46;94.72;98673.38;5009914;28;20251;-68
2022/11/18 01:36:24;;;;;;;6.77;3.40;;;;;;;7.47;94.61;98664.59;5012414;28;20242;-68
2022/11/18 01:38:51;;;;;;;7.17;3.70;;;;;;;7.48;94.56;98668.09;5009394;28;20250;-68
2022/11/18 01:41:19;;;;;;;6.97;3.80;;;;;;;7.49;94.81;98669.84;5009965;28;20689;-67
2022/11/18 01:43:56;;;;;;;7.07;3.47;;;;;;;7.47;94.99;98677.75;5011064;28;20205;-68
2022/11/18 01:46:25;;;;;;;7.33;3.40;;;;;;;7.49;94.89;98676.00;5012370;28;20623;-67
2022/11/18 01:48:56;;;;;;;7.73;3.57;;;;;;;7.51;95.14;98676.88;5008273;28;20230;-68
2022/11/18 01:51:45;;;;;;;9.37;3.77;;;;;;;7.58;95.06;98677.72;5012530;28;20192;-67
2022/11/18 01:54:19;;;;;;;10.40;3.70;;;;;;;7.64;95.17;98684.78;5007122;28;20200;-68
2022/11/18 01:56:51;;;;;;;7.47;3.63;;;;;;;7.65;95.12;98682.13;4994622;28;20523;-68
2022/11/18 01:59:22;;;;;;;9.70;3.70;;;;;;;7.71;95.13;98682.09;4991554;28;20253;-69
2022/11/18 02:01:48;;;;;;;6.37;3.90;;;;;;;7.80;94.66;98679.44;4989368;28;20222;-68
2022/11/18 02:04:17;;;;;;;8.67;3.93;;;;;;;7.90;93.29;98674.13;4992913;28;20661;-69
2022/11/18 02:06:45;;;;;;;5.90;3.50;;;;;;;7.91;93.41;98681.16;4992205;28;20235;-68
2022/11/18 02:09:14;;;;;;;7.70;4.13;;;;;;;7.89;93.96;98696.09;4990704;28;20228;-69
2022/11/18 02:11:53;;;;;;;9.57;3.97;;;;;;;7.82;93.80;98688.22;4988589;28;20195;-67
2022/11/18 02:14:25;;;;;;;6.37;3.57;;;;;;;7.83;94.05;98694.38;4977878;28;20197;-67
2022/11/18 02:17:29;;;;;;;6.43;3.53;;;;;;;7.92;93.68;98689.06;4990137;28;20221;-67
2022/11/18 02:20:07;;;;;;;8.93;4.77;;;;;;;8.03;93.17;98699.59;4989540;28;20205;-68
2022/11/18 02:22:43;;;;;;;11.27;3.93;;;;;;;8.07;92.77;98699.56;4991414;28;20199;-68
2022/11/18 02:25:46;;;;;;;6.43;3.93;;;;;;;8.12;92.50;98699.53;4985255;28;20195;-68
2022/11/18 02:28:25;;;;;;;5.10;4.13;;;;;;;8.15;92.55;98696.91;4991427;28;20453;-68
2022/11/18 02:31:07;;;;;;;8.57;4.30;;;;;;;8.07;92.79;98710.09;4990742;28;20231;-68
2022/11/18 02:33:58;;;;;;;7.33;3.90;;;;;;;8.03;92.73;98710.13;4990657;28;20232;-69
2022/11/18 02:36:39;;;;;;;8.37;4.33;;;;;;;8.01;92.97;98712.78;4990240;28;20229;-68
2022/11/18 02:39:16;;;;;;;6.87;4.17;;;;;;;7.99;93.00;98709.22;4981714;28;20696;-68
2022/11/18 02:41:46;;;;;;;7.40;4.23;;;;;;;7.99;93.50;98719.78;4990902;28;20236;-68
2022/11/18 02:44:15;;;;;;;9.97;4.53;;;;;;;7.99;93.23;98713.63;4986623;28;20226;-68
2022/11/18 02:46:48;;;;;;;11.20;4.33;;;;;;;8.02;93.41;98711.88;4991674;28;20339;-68
2022/11/18 02:49:21;;;;;;;8.80;4.63;;;;;;;8.05;93.22;98706.59;4991088;28;20676;-68
2022/11/18 02:51:49;;;;;;;9.70;4.83;;;;;;;8.03;93.13;98711.00;4988534;28;20195;-68
2022/11/18 02:54:19;;;;;;;9.30;5.20;;;;;;;7.95;93.20;98696.94;4990638;28;20616;-68
2022/11/18 02:56:47;;;;;;;11.17;5.30;;;;;;;7.89;93.54;98688.19;5003722;28;20225;-68
2022/11/18 02:59:17;;;;;;;9.87;5.30;;;;;;;7.95;93.57;98707.50;5009922;28;20202;-68
2022/11/18 03:01:44;;;;;;;12.60;5.60;;;;;;;8.15;92.69;98704.81;5007487;28;20724;-68
2022/11/18 03:04:13;;;;;;;10.80;5.53;;;;;;;8.09;92.92;98707.47;5009259;28;20642;-68
2022/11/18 03:06:42;;;;;;;9.27;5.23;;;;;;;8.01;93.09;98711.91;5010381;28;20754;-68
2022/11/18 03:09:30;;;;;;;11.93;5.00;;;;;;;7.88;93.38;98711.03;5008487;28;20232;-68
2022/11/18 03:12:34;;;;;;;16.90;5.20;;;;;;;7.78;93.60;98712.81;4993980;28;20194;-68
2022/11/18 03:15:23;;;;;;;11.90;4.93;;;;;;;7.76;93.61;98711.06;5009572;28;20221;-68
2022/11/18 03:17:57;;;;;;;9.90;4.73;;;;;;;7.71;93.85;98713.72;5007874;28;20232;-68
2022/11/18 03:20:28;;;;;;;10.30;5.43;;;;;;;7.67;94.29;98708.47;5008189;28;20191;-68
2022/11/18 03:23:19;;;;;;;11.03;4.90;;;;;;;7.74;94.41;98711.09;5010547;28;20638;-67
2022/11/18 03:26:03;;;;;;;12.63;5.30;;;;;;;7.78;94.54;98710.19;5004951;28;20302;-69
2022/11/18 03:28:43;;;;;;;11.47;5.07;;;;;;;7.79;94.40;98716.34;5004262;28;20603;-67
2022/11/18 03:31:32;;;;;;;9.93;5.37;;;;;;;7.93;93.62;98725.06;5005190;28;20188;-68
2022/11/18 03:34:07;;;;;;;10.40;4.83;;;;;;;7.92;93.21;98731.22;5004953;28;20200;-68
2022/11/18 03:36:39;;;;;;;9.90;5.43;;;;;;;7.83;93.50;98733.91;5006463;28;20270;-67
2022/11/18 03:39:09;;;;;;;9.03;5.53;;;;;;;7.81;93.48;98733.91;5002599;28;20207;-67
2022/11/18 03:41:41;;;;;;;11.93;5.27;;;;;;;7.69;93.86;98735.69;5004619;28;20343;-67
2022/11/18 03:44:19;;;;;;;9.77;4.80;;;;;;;7.50;94.01;98729.56;5001593;28;20679;-68
2022/11/18 03:46:51;;;;;;;9.07;4.50;;;;;;;7.46;94.31;98738.34;5008216;28;20229;-67
2022/11/18 03:49:25;;;;;;;6.93;4.87;;;;;;;7.38;94.50;98743.63;5008429;28;20254;-68
2022/11/18 03:51:57;;;;;;;8.50;5.30;;;;;;;7.38;95.12;98753.28;5006477;28;20197;-68
2022/11/18 03:54:29;;;;;;;11.23;5.47;;;;;;;7.42;95.10;98733.97;5003708;28;20205;-68
2022/11/18 03:56:58;;;;;;;9.87;5.73;;;;;;;7.51;94.78;98760.28;5009341;28;20267;-68
2022/11/18 03:59:34;;;;;;;10.53;5.43;;;;;;;7.39;94.69;98760.28;5006328;28;20247;-68
2022/11/18 04:02:10;;;;;;;8.37;5.60;;;;;;;7.24;94.71;98745.38;5002171;28;20729;-68
2022/11/18 04:04:37;;;;;;;10.13;5.63;;;;;;;7.23;95.14;98759.44;4987811;28;20689;-67
2022/11/18 04:07:08;;;;;;;12.77;5.57;;;;;;;7.27;95.21;98762.94;5007756;28;20220;-68
2022/11/18 04:09:42;;;;;;;11.63;5.93;;;;;;;7.25;95.53;98764.69;5005967;28;20207;-69
2022/11/18 04:12:12;;;;;;;8.27;5.47;;;;;;;7.23;95.58;98760.31;5009013;28;20193;-68
2022/11/18 04:14:42;;;;;;;10.70;6.03;;;;;;;7.27;95.51;98763.81;5004896;28;20199;-68
2022/11/18 04:17:14;;;;;;;10.27;5.97;;;;;;;7.33;95.79;98776.97;5008576;28;20220;-68
2022/11/18 04:19:41;;;;;;;10.20;6.40;;;;;;;7.29;95.98;98763.81;5006578;28;20254;-68
2022/11/18 04:22:08;;;;;;;10.23;6.03;;;;;;;7.31;95.81;98772.59;5005933;28;20243;-67
2022/11/18 04:24:35;;;;;;;13.40;7.13;;;;;;;7.47;95.96;98776.97;5007142;28;20207;-68
2022/11/18 04:27:03;;;;;;;12.97;6.87;;;;;;;7.50;95.90;98776.97;4993337;28;20225;-68
2022/11/18 04:29:30;;;;;;;12.50;7.17;;;;;;;7.61;95.56;98782.25;5008047;28;20228;-68
2022/11/18 04:31:58;;;;;;;13.70;6.37;;;;;;;7.67;95.38;98782.25;5004382;28;20322;-68
2022/11/18 04:34:24;;;;;;;12.50;7.20;;;;;;;7.59;95.42;98779.59;4990265;28;20224;-68
2022/11/18 04:36:51;;;;;;;15.83;7.20;;;;;;;7.53;95.73;98780.47;5002615;28;20249;-68
2022/11/18 04:39:17;;;;;;;18.20;6.70;;;;;;;7.49;95.86;98768.19;5007033;28;20204;-68
2022/11/18 04:41:57;;;;;;;11.17;6.67;;;;;;;7.48;95.71;98765.56;5007026;28;20267;-69
2022/11/18 04:44:31;;;;;;;11.03;6.40;;;;;;;7.78;95.14;98783.97;5004766;28;20208;-68
2022/11/18 04:47:00;;;;;;;13.37;6.73;;;;;;;7.67;95.09;98766.44;5004025;28;20224;-68
2022/11/18 04:49:27;;;;;;;12.83;6.77;;;;;;;7.75;95.25;98786.63;5009153;28;20231;-68
2022/11/18 04:51:54;;;;;;;12.43;6.37;;;;;;;7.83;94.69;98798.03;5006380;28;20196;-67
2022/11/18 04:54:22;;;;;;;15.00;6.40;;;;;;;7.79;94.97;98801.53;5002564;28;20225;-70
2022/11/18 04:56:49;;;;;;;13.07;6.53;;;;;;;7.75;95.15;98798.91;5005313;28;20275;-76
2022/11/18 04:59:21;;;;;;;12.07;6.27;;;;;;;7.71;95.25;98805.06;5002120;28;20225;-69
2022/11/18 05:01:48;;;;;;;11.57;6.33;;;;;;;7.68;95.37;98802.44;5005025;28;20275;-68
2022/11/18 05:04:18;;;;;;;12.53;6.70;;;;;;;7.66;95.57;98804.19;5004407;28;20216;-67
2022/11/18 05:06:45;;;;;;;12.73;6.47;;;;;;;7.71;95.69;98811.22;5004774;28;20229;-67
2022/11/18 05:09:12;;;;;;;11.60;6.73;;;;;;;7.72;95.42;98801.56;5008197;28;20699;-68
2022/11/18 05:14:28;;;;;;;11.93;6.67;;;;;;;7.76;95.96;98816.47;5007778;28;20194;-68
2022/11/18 05:16:57;;;;;;;11.73;6.40;;;;;;;7.75;95.65;98814.72;5006991;28;20253;-68
2022/11/18 05:19:23;;;;;;;11.17;6.27;;;;;;;7.73;95.92;98821.75;5006445;28;20621;-67
2022/11/18 05:21:50;;;;;;;13.70;6.47;;;;;;;7.74;95.75;98824.38;5004985;28;20260;-68
2022/11/18 05:24:16;;;;;;;12.50;6.60;;;;;;;7.76;95.86;98830.53;5008296;28;20206;-67
2022/11/18 05:26:43;;;;;;;14.43;7.37;;;;;;;7.92;95.90;98819.97;5006900;28;20228;-68
2022/11/18 05:29:09;;;;;;;14.27;6.90;;;;;;;7.99;95.62;98826.97;5003654;28;20214;-67
2022/11/18 05:31:36;;;;;;;12.60;6.87;;;;;;;8.03;95.63;98834.03;5001946;28;20319;-67
2022/11/18 05:34:03;;;;;;;13.20;7.03;;;;;;;7.85;95.62;98816.47;4987610;28;20196;-67
2022/11/18 05:36:29;;;;;;;13.87;6.97;;;;;;;7.94;95.66;98840.16;5005926;28;20247;-67
2022/11/18 05:38:59;;;;;;;13.83;7.47;;;;;;;7.96;95.60;98848.06;5005974;28;20216;-67
2022/11/18 05:44:11;;;;;;;10.57;6.23;;;;;;;7.99;95.84;98848.94;5007876;28;20222;-67
2022/11/18 05:46:37;;;;;;;18.13;7.77;;;;;;;8.03;95.78;98856.00;5006292;28;20248;-67
2022/11/18 05:49:03;;;;;;;14.77;7.43;;;;;;;8.04;95.93;98847.22;5006764;28;20211;-68
2022/11/18 05:51:30;;;;;;;14.93;7.30;;;;;;;8.11;95.81;98853.34;5008710;28;20306;-68
2022/11/18 05:53:57;;;;;;;11.43;6.80;;;;;;;8.06;95.57;98852.47;5004950;28;20203;-67
2022/11/18 05:56:40;;;;;;;12.27;6.37;;;;;;;8.07;95.68;98857.75;5018860;23;20226;-62
2022/11/18 05:59:06;;;;;;;16.87;6.97;;;;;;;8.06;95.66;98853.34;4967458;28;20253;-63
2022/11/18 06:02:11;;;;;;;13.63;7.40;;;;;;;8.08;95.78;98859.50;4970678;28;20679;-60
2022/11/18 06:04:42;;;;;;;15.80;7.23;;;;;;;8.11;95.47;98863.91;4946999;28;20239;-62
2022/11/18 06:07:19;;;;;;;15.80;7.43;;;;;;;8.06;95.48;98866.53;4987786;28;20244;-61
2022/11/18 06:09:50;;;;;;;14.47;7.40;;;;;;;8.13;95.52;98870.03;4984369;28;20205;-61
2022/11/18 06:12:22;;;;;;;12.70;7.50;;;;;;;8.10;95.53;98868.28;4986115;28;20204;-62
2022/11/18 06:14:57;;;;;;;17.50;7.93;;;;;;;8.05;95.55;98875.34;4989886;28;20201;-62
2022/11/18 06:17:29;;;;;;;15.17;8.43;;;;;;;8.17;94.92;98883.22;4987743;28;20213;-62
2022/11/18 06:19:56;;;;;;;18.43;7.93;;;;;;;8.16;95.16;98878.81;4982985;28;20212;-66
2022/11/18 06:22:23;;;;;;;17.13;8.53;;;;;;;8.11;95.04;98880.59;4992522;28;20542;-63
2022/11/18 06:24:50;;;;;;;18.07;8.43;;;;;;;8.16;95.24;98893.78;4990615;28;20209;-64
2022/11/18 06:27:17;;;;;;;15.00;7.80;;;;;;;8.15;95.24;98894.66;4989839;28;20217;-63
2022/11/18 06:29:43;;;;;;;14.70;7.90;;;;;;;8.14;95.20;98899.03;4990603;28;20202;-64
2022/11/18 06:32:10;;;;;;;16.50;8.77;;;;;;;8.21;95.11;98901.66;4985727;28;20190;-65
2022/11/18 06:34:36;;;;;;;17.30;9.47;;;;;;;8.26;94.66;98905.19;4983395;28;20265;-63
2022/11/18 06:37:15;;;;;;;16.90;8.40;;;;;;;8.25;94.66;98909.56;4986454;28;20226;-61
2022/11/18 06:39:42;;;;;;;21.43;9.20;;;;;;;8.20;94.70;98905.19;4988457;28;20214;-63
2022/11/18 06:42:09;;;;;;;14.87;8.83;;;;;;;8.27;94.75;98925.38;4969257;28;20358;-64
2022/11/18 06:44:35;;;;;;;17.07;8.90;;;;;;;8.29;94.41;98916.59;4987152;28;20202;-64
2022/11/18 06:47:03;;;;;;;18.60;8.73;;;;;;;8.35;94.17;98929.81;4988267;28;20218;-64
2022/11/18 06:49:29;;;;;;;18.60;8.97;;;;;;;8.40;94.10;98938.59;4988375;28;20203;-65
2022/11/18 06:51:55;;;;;;;16.73;9.30;;;;;;;8.43;93.53;98940.38;4988174;28;20703;-63
2022/11/18 06:54:22;;;;;;;15.73;8.70;;;;;;;8.35;93.63;98943.00;4982974;28;20205;-62
2022/11/18 06:56:48;;;;;;;19.13;8.93;;;;;;;8.30;93.76;98943.84;4987984;28;20230;-63
2022/11/18 06:59:21;;;;;;;16.50;9.40;;;;;;;8.27;93.88;98944.72;4959992;28;20202;-64
2022/11/18 07:01:47;;;;;;;18.13;9.37;;;;;;;8.15;93.94;98929.81;4980845;28;20286;-64
2022/11/18 07:04:13;;;;;;;17.13;9.33;;;;;;;8.29;94.23;98953.53;4977732;28;20757;-62
2022/11/18 07:06:40;;;;;;;17.67;9.60;;;;;;;8.28;94.25;98956.16;4985481;28;20674;-64
2022/11/18 07:09:06;;;;;;;16.47;8.70;;;;;;;8.34;94.01;98962.34;4991875;28;20195;-62
2022/11/18 07:11:33;;;;;;;17.17;8.80;;;;;;;8.37;93.61;98951.78;4990771;28;20224;-64
2022/11/18 07:14:00;;;;;;;17.03;9.07;;;;;;;8.33;93.78;98963.22;4989698;28;20227;-65
2022/11/18 07:16:26;;;;;;;16.30;9.13;;;;;;;8.39;93.89;98962.31;4990541;28;20218;-62
2022/11/18 07:18:55;;;;;;;16.30;9.37;;;;;;;8.51;93.47;98972.00;4983760;28;20240;-64
2022/11/18 07:21:24;;;;;;;17.53;8.90;;;;;;;8.47;93.60;98977.31;4992109;28;20200;-63
2022/11/18 07:23:50;;;;;;;17.90;9.37;;;;;;;8.41;93.77;98977.31;4991884;28;20238;-63
2022/11/18 07:26:17;;;;;;;16.17;9.43;;;;;;;8.45;93.72;98986.97;4992118;28;20302;-65
2022/11/18 07:28:44;;;;;;;15.27;8.67;;;;;;;8.44;93.70;98979.06;4978561;28;21044;-62
2022/11/18 07:31:16;;;;;;;20.43;9.80;;;;;;;8.61;92.87;98992.22;4975389;28;20310;-65
2022/11/18 07:33:43;;;;;;;16.23;9.93;;;;;;;8.58;93.02;98995.75;4975585;28;20235;-63
2022/11/18 07:36:15;;;;;;;16.50;8.50;;;;;;;8.50;93.29;99000.16;4977855;28;20218;-63
2022/11/18 07:38:42;;;;;;;18.00;8.90;;;;;;;8.45;93.37;99008.09;4962552;28;20224;-63
2022/11/18 07:41:11;;;;;;;16.60;8.90;;;;;;;8.46;93.43;99003.69;4973263;28;20665;-61
2022/11/18 07:43:38;;;;;;;16.93;8.80;;;;;;;8.48;93.38;99009.84;4973108;28;20255;-65
2022/11/18 07:46:28;;;;;;;14.33;8.57;;;;;;;8.57;93.05;99014.22;4972829;28;20244;-63
2022/11/18 07:48:56;;;;;;;23.37;8.63;;;;;;;8.70;92.75;99023.88;4975474;28;20234;-63
2022/11/18 07:51:26;;;;;;;13.50;9.00;;;;;;;8.66;92.69;99022.13;4981151;28;20280;-62
2022/11/18 07:53:52;;;;;;;18.70;10.07;;;;;;;8.64;92.77;99027.41;4975889;28;20685;-63
2022/11/18 07:56:19;;;;;;;18.63;8.37;;;;;;;8.69;92.86;99032.66;4971750;28;20235;-64
2022/11/18 07:58:45;;;;;;;13.83;8.07;;;;;;;8.70;92.82;99032.66;4979543;28;20303;-61
2022/11/18 08:01:15;;;;;;;14.77;7.73;;;;;;;8.74;92.93;99026.50;4982795;28;20338;-64
2022/11/18 08:03:43;;;;;;;15.47;7.93;;;;;;;8.81;92.64;99027.41;4985319;28;20323;-62
2022/11/18 08:06:12;;;;;;;13.83;7.13;;;;;;;8.91;91.77;99037.06;4988747;28;20290;-62
2022/11/18 08:08:38;;;;;;;13.13;7.50;;;;;;;8.88;91.99;99036.19;4988819;28;20215;-62
2022/11/18 08:11:07;;;;;;;12.47;7.27;;;;;;;8.89;92.33;99045.88;4984950;28;20578;-63
2022/11/18 08:13:34;;;;;;;10.83;7.17;;;;;;;9.00;91.98;99044.94;4987523;28;20214;-62
2022/11/18 08:16:01;;;;;;;11.40;6.40;;;;;;;8.94;91.34;99030.88;4988690;28;20270;-64
2022/11/18 08:18:30;;;;;;;13.27;7.10;;;;;;;9.06;91.47;99052.84;4986043;28;20318;-62
2022/11/18 08:21:02;;;;;;;10.77;6.90;;;;;;;8.96;91.47;99051.13;4988633;28;20202;-63
2022/11/18 08:23:29;;;;;;;8.90;5.73;;;;;;;9.09;91.16;99066.06;4989421;28;20224;-63
2022/11/18 08:26:05;;;;;;;9.73;6.47;;;;;;;9.17;90.35;99051.94;4986152;28;20261;-63
2022/11/18 08:28:32;;;;;;;11.77;6.13;;;;;;;9.24;90.21;99067.81;4988468;28;20196;-61
2022/11/18 08:30:58;;;;;;;9.47;5.57;;;;;;;9.24;90.18;99073.09;4988041;28;20208;-64
2022/11/18 08:33:25;;;;;;;8.73;5.60;;;;;;;9.47;88.72;99074.75;4988349;28;20197;-62
2022/11/18 08:35:51;;;;;;;9.47;5.63;;;;;;;9.45;88.50;99072.13;4986628;28;20222;-63
2022/11/18 08:38:18;;;;;;;7.80;5.23;;;;;;;9.43;88.71;99077.41;4986809;28;20657;-62
2022/11/18 08:40:46;;;;;;;11.67;4.97;;;;;;;9.47;89.44;99078.28;4986078;28;20236;-62
2022/11/18 08:43:13;;;;;;;8.17;5.63;;;;;;;9.50;89.18;99072.97;4989976;28;20709;-63
2022/11/18 08:45:39;;;;;;;7.27;4.10;;;;;;;9.48;89.02;99084.44;4986929;28;20269;-64
2022/11/18 08:48:06;;;;;;;5.87;3.33;;;;;;;9.50;88.47;99093.25;4989510;28;20227;-63
2022/11/18 08:50:32;;;;;;;7.53;3.40;;;;;;;9.61;87.22;99091.47;4985868;28;20251;-62
2022/11/18 08:52:58;;;;;;;5.03;3.00;;;;;;;9.48;87.49;99089.72;4985394;28;20192;-60
2022/11/18 08:55:25;;;;;;;6.13;3.13;;;;;;;9.47;87.23;99095.91;4984099;28;20214;-60
2022/11/18 08:57:51;;;;;;;5.80;3.30;;;;;;;9.54;86.93;99095.00;4983260;28;20656;-63
2022/11/18 09:00:18;;;;;;;6.07;3.07;;;;;;;9.57;87.31;99095.84;4981451;28;20214;-62
2022/11/18 09:02:45;;;;;;;6.60;3.03;;;;;;;9.80;86.75;99100.19;4978497;28;20244;-62
2022/11/18 09:05:11;;;;;;;7.80;2.80;;;;;;;9.77;85.58;99094.91;4987577;28;20705;-61
2022/11/18 09:07:38;;;;;;;6.70;2.40;;;;;;;9.76;86.21;99098.44;4987025;28;20283;-61
2022/11/18 09:10:04;;;;;;;4.27;2.70;;;;;;;9.85;86.43;99101.03;4985698;28;20592;-65
2022/11/18 09:12:31;;;;;;;4.67;2.27;;;;;;;9.95;84.19;99108.03;4983949;28;20201;-61
2022/11/18 09:14:57;;;;;;;3.53;2.50;;;;;;;10.09;83.77;99105.34;4988372;28;20205;-63
2022/11/18 09:17:43;;;;;;;3.67;2.50;;;;;;;10.20;83.09;99098.22;4984718;28;20201;-60
2022/11/18 09:20:09;;;;;;;4.53;2.40;;;;;;;10.35;83.07;99106.97;4988019;28;20279;-65
2022/11/18 09:22:39;;;;;;;8.03;2.40;;;;;;;10.28;82.57;99104.38;4983546;28;20226;-63
2022/11/18 09:25:05;;;;;;;3.30;2.33;;;;;;;10.35;83.01;99096.38;4984058;28;20295;-63
2022/11/18 09:27:32;;;;;;;4.07;2.30;;;;;;;10.49;83.80;99096.31;4980208;28;20291;-62
2022/11/18 09:29:58;;;;;;;4.17;2.20;;;;;;;10.73;81.65;99097.88;4980204;28;20801;-62
2022/11/18 09:32:25;;;;;;;5.43;2.20;;;;;;;10.78;80.51;99092.53;4983530;28;20201;-62
2022/11/18 09:34:51;;;;;;;5.83;2.23;;;;;;;10.75;81.23;99104.03;4981743;28;20210;-65
2022/11/18 09:37:18;;;;;;;6.33;1.97;;;;;;;10.95;80.81;99099.47;4978387;28;20246;-65
2022/11/18 09:39:44;;;;;;;8.40;2.33;;;;;;;10.83;80.20;99112.81;4981749;28;20208;-64
2022/11/18 09:42:29;;;;;;;5.87;1.90;;;;;;;10.88;80.86;99123.38;4976942;28;20199;-65
2022/11/18 09:45:21;;;;;;;2.73;2.03;;;;;;;11.03;80.65;99117.06;4973470;28;20223;-66
2022/11/18 09:47:50;;;;;;;2.80;1.80;;;;;;;11.05;80.36;99121.44;4970888;28;20297;-70
2022/11/18 09:50:20;;;;;;;3.03;2.13;;;;;;;11.01;80.74;99130.31;4971532;28;20218;-71
2022/11/18 09:53:13;;;;;;;2.67;1.90;;;;;;;11.11;80.07;99137.28;4972310;28;20199;-68
2022/11/18 09:55:40;;;;;;;4.53;1.93;;;;;;;11.27;79.73;99135.41;4973309;28;20721;-69
2022/11/18 09:58:16;;;;;;;3.80;1.90;;;;;;;11.33;79.84;99135.31;4977588;28;20211;-74
2022/11/18 10:00:43;;;;;;;4.93;1.97;;;;;;;11.38;79.48;99137.94;4975414;28;20655;-71
2022/11/18 10:03:26;;;;;;;5.30;1.93;;;;;;;11.19;79.08;99131.91;4974978;28;20260;-71
2022/11/18 10:06:16;;;;;;;4.60;2.00;;;;;;;11.20;79.61;99145.16;4974846;28;20615;-71
2022/11/18 10:09:13;;;;;;;4.67;1.90;;;;;;;11.13;79.75;99146.09;4966970;28;20196;-67
2022/11/18 10:12:07;;;;;;;3.43;1.83;;;;;;;11.28;80.44;99151.28;4974178;28;20240;-63
2022/11/18 10:14:42;;;;;;;3.47;2.00;;;;;;;11.41;78.93;99145.84;4984412;28;20712;-67
2022/11/18 10:17:31;;;;;;;4.47;2.10;;;;;;;11.57;77.63;99152.75;4986162;28;20281;-65
2022/11/18 10:20:11;;;;;;;4.30;2.00;;;;;;;11.46;76.99;99152.84;4982261;28;20298;-67
2022/11/18 10:23:03;;;;;;;8.23;2.53;;;;;;;11.55;77.42;99162.47;4981402;28;20567;-68
2022/11/18 10:25:30;;;;;;;5.23;1.97;;;;;;;11.58;77.97;99159.78;4983862;28;20239;-71
2022/11/18 10:28:12;;;;;;;4.20;2.00;;;;;;;11.67;78.48;99158.84;4984726;28;20215;-71
2022/11/18 10:30:38;;;;;;;5.60;3.83;;;;;;;11.71;79.04;99169.41;4978341;28;20720;-71
2022/11/18 10:33:20;;;;;;;5.10;2.10;;;;;;;11.71;78.98;99169.41;4983816;28;20193;-67
2022/11/18 10:35:48;;;;;;;3.90;2.20;;;;;;;11.90;78.70;99168.31;4982119;28;20252;-65
2022/11/18 10:38:14;;;;;;;2.53;2.13;;;;;;;12.06;78.99;99165.50;4980590;28;20227;-65
2022/11/18 10:40:49;;;;;;;3.27;2.00;;;;;;;12.30;77.22;99172.25;4985708;28;20621;-62
2022/11/18 10:43:50;;;;;;;4.00;2.10;;;;;;;12.29;76.50;99168.72;4978331;28;20274;-67
2022/11/18 10:46:28;;;;;;;6.07;2.20;;;;;;;12.39;75.69;99167.69;4976808;28;20216;-61
2022/11/18 10:49:09;;;;;;;4.30;2.10;;;;;;;12.49;75.28;99172.00;4977458;28;20197;-62
2022/11/18 10:51:39;;;;;;;3.43;2.37;;;;;;;12.53;75.63;99173.72;4981157;28;20637;-61
2022/11/18 10:54:22;;;;;;;6.17;2.30;;;;;;;12.70;74.37;99167.25;4966709;28;20201;-62
2022/11/18 10:56:55;;;;;;;6.97;2.10;;;;;;;12.75;75.49;99166.28;4977491;28;20789;-63
2022/11/18 10:59:35;;;;;;;5.43;1.77;;;;;;;12.99;74.23;99164.16;4976118;28;20193;-64
2022/11/18 11:02:20;;;;;;;4.00;1.80;;;;;;;13.11;74.45;99172.81;4978488;28;20638;-62
2022/11/18 11:04:49;;;;;;;2.00;1.60;;;;;;;13.24;73.26;99170.00;4980936;28;20277;-64
2022/11/18 11:07:26;;;;;;;2.00;1.50;;;;;;;13.35;71.82;99171.56;4965508;28;20221;-66
2022/11/18 11:10:05;;;;;;;3.07;1.67;;;;;;;13.37;72.00;99174.19;4981083;28;20232;-63
2022/11/18 11:12:34;;;;;;;2.00;1.20;;;;;;;13.18;70.73;99166.53;4979885;28;20202;-62
2022/11/18 11:15:08;;;;;;;2.33;1.40;;;;;;;13.17;72.26;99183.38;4977580;28;20220;-62
2022/11/18 11:17:41;;;;;;;2.57;1.60;;;;;;;13.04;72.20;99157.88;4980231;28;20224;-62
2022/11/18 11:20:21;;;;;;;2.23;1.43;;;;;;;12.93;72.61;99188.19;4979268;28;20197;-61
2022/11/18 11:22:48;;;;;;;3.47;1.67;;;;;;;12.84;72.96;99186.56;4981643;28;20302;-62
2022/11/18 11:25:38;;;;;;;4.30;1.50;;;;;;;12.93;72.78;99191.72;4977266;28;20251;-65
2022/11/18 11:28:37;;;;;;;4.07;1.60;;;;;;;12.93;72.41;99181.09;4979208;28;20656;-66
2022/11/18 11:31:31;;;;;;;2.90;1.67;;;;;;;12.82;72.19;99178.63;4984703;28;20700;-64
2022/11/18 11:34:20;;;;;;;3.17;1.70;;;;;;;12.76;72.68;99188.44;4977928;28;20584;-63
2022/11/18 11:37:12;;;;;;;4.90;1.93;;;;;;;12.46;75.61;99187.97;4975498;28;20328;-63
2022/11/18 11:40:02;;;;;;;2.33;1.50;;;;;;;12.36;75.79;99194.28;4978568;28;20200;-65
2022/11/18 11:42:41;;;;;;;1.87;1.30;;;;;;;12.21;76.83;99195.38;4980681;28;20208;-65
2022/11/18 11:45:18;;;;;;;2.30;1.40;;;;;;;11.82;77.82;99190.53;4984176;28;20208;-64
2022/11/18 11:47:56;;;;;;;3.90;1.70;;;;;;;11.75;79.05;99184.38;4977693;28;20315;-64
2022/11/18 11:50:53;;;;;;;4.93;1.60;;;;;;;11.87;80.50;99188.69;4977592;28;20384;-65
2022/11/18 11:53:35;;;;;;;1.80;1.50;;;;;;;12.07;80.17;99202.63;4975501;28;20228;-65
2022/11/18 11:56:10;;;;;;;4.30;2.07;;;;;;;12.55;79.55;99195.81;4976701;28;20347;-64
2022/11/18 11:59:07;;;;;;;2.53;1.43;;;;;;;12.97;75.40;99184.59;4977824;28;20247;-66
2022/11/18 12:01:47;;;;;;;3.97;1.43;;;;;;;13.23;73.53;99187.75;4979706;28;20238;-67
2022/11/18 12:04:23;;;;;;;3.37;2.20;;;;;;;13.31;71.87;99184.94;4981164;28;20228;-66
2022/11/18 12:06:52;;;;;;;6.73;1.63;;;;;;;13.44;71.92;99186.47;4976691;28;20252;-62
2022/11/18 12:09:31;;;;;;;3.60;1.40;;;;;;;13.32;72.55;99189.38;4980016;28;20677;-63